Time;durP1;ratioP1;P1;durP2;ratioP2;P2;SDS_P1;SDS_P2;PMS_P1;PMS_P2;Temp;Humidity;BMP_temperature;BMP_pressure;BME280_temperature;BME280_humidity;BME280_pressure;Samples;Min_cycle;Max_cycle;Signal;HPM_P1;HPM_P2
2023/12/23 00:01:17;;;;;;;298.20;10.90;;;;;;;21.04;56.27;97435.16;7277819;19;130332;-37
2023/12/23 00:03:43;;;;;;;336.75;12.13;;;;;;;20.99;56.16;97453.22;7279581;19;129666;-35
2023/12/23 00:06:09;;;;;;;339.90;12.43;;;;;;;20.99;56.39;97463.66;7278397;19;130792;-38
2023/12/23 00:08:34;;;;;;;339.05;13.18;;;;;;;20.85;56.40;97437.59;7276427;19;132443;-40
2023/12/23 00:11:00;;;;;;;407.00;14.95;;;;;;;20.99;56.82;97492.41;7276492;19;131484;-39
2023/12/23 00:13:25;;;;;;;289.15;10.45;;;;;;;20.95;56.62;97475.47;7279635;19;129503;-36
2023/12/23 00:15:50;;;;;;;296.20;11.25;;;;;;;20.93;57.23;97474.84;7279587;19;131325;-34
2023/12/23 00:18:16;;;;;;;332.57;12.43;;;;;;;20.96;56.94;97484.91;7277356;19;130134;-38
2023/12/23 00:20:41;;;;;;;355.65;13.00;;;;;;;20.94;57.01;97491.31;7277809;19;131791;-38
2023/12/23 00:23:06;;;;;;;368.13;14.17;;;;;;;20.88;57.44;97498.09;7279115;19;131688;-37
2023/12/23 00:25:32;;;;;;;315.13;11.63;;;;;;;20.85;57.39;97495.84;7278877;19;130518;-32
2023/12/23 00:27:57;;;;;;;347.65;13.07;;;;;;;20.83;57.33;97508.28;7277091;19;130118;-38
2023/12/23 00:30:22;;;;;;;356.08;12.88;;;;;;;20.86;57.19;97509.72;7275242;19;130564;-35
2023/12/23 00:32:48;;;;;;;359.63;13.50;;;;;;;20.83;57.27;97512.69;7277712;19;131106;-33
2023/12/23 00:35:13;;;;;;;280.43;10.07;;;;;;;20.74;57.13;97506.78;7278394;19;131905;-37
2023/12/23 00:37:39;;;;;;;285.60;10.68;;;;;;;20.78;57.67;97521.09;7277623;19;129980;-35
2023/12/23 00:40:06;;;;;;;472.42;17.83;;;;;;;20.79;57.62;97519.28;7275294;19;131648;-35
2023/12/23 00:42:31;;;;;;;270.58;9.88;;;;;;;20.68;57.87;97507.50;7276297;19;130223;-37
2023/12/23 00:44:57;;;;;;;368.08;13.70;;;;;;;20.81;57.86;97533.75;7274895;19;130349;-38
2023/12/23 00:47:22;;;;;;;260.00;9.73;;;;;;;20.72;57.70;97514.78;7277440;19;131340;-35
2023/12/23 00:49:48;;;;;;;395.27;14.63;;;;;;;20.81;57.47;97541.59;7275190;19;130697;-37
2023/12/23 00:52:13;;;;;;;308.65;11.25;;;;;;;20.82;57.77;97532.78;7274474;19;130384;-43
2023/12/23 00:54:38;;;;;;;309.80;11.75;;;;;;;20.77;57.80;97532.53;7278748;19;130577;-40
2023/12/23 00:57:04;;;;;;;425.50;16.13;;;;;;;20.75;57.38;97531.91;7277369;19;132379;-42
2023/12/23 00:59:29;;;;;;;308.88;11.98;;;;;;;20.74;57.56;97528.47;7277002;19;130617;-44
2023/12/23 01:01:54;;;;;;;398.83;14.82;;;;;;;20.61;57.79;97506.63;7275184;19;130978;-41
2023/12/23 01:04:20;;;;;;;299.92;10.52;;;;;;;20.75;57.60;97524.06;7276758;19;130832;-39
2023/12/23 01:06:45;;;;;;;369.13;13.02;;;;;;;20.69;58.13;97525.59;7277842;19;132996;-42
2023/12/23 01:09:10;;;;;;;412.50;16.05;;;;;;;20.73;57.83;97541.72;7273742;19;131607;-43
2023/12/23 01:11:36;;;;;;;262.25;9.80;;;;;;;20.73;58.02;97552.16;7272403;19;130430;-37
2023/12/23 01:14:01;;;;;;;343.20;12.20;;;;;;;20.73;57.80;97562.59;7273039;19;129663;-42
2023/12/23 01:16:26;;;;;;;372.15;13.25;;;;;;;20.74;57.63;97566.84;7275595;19;130313;-39
2023/12/23 01:18:52;;;;;;;313.23;11.10;;;;;;;20.74;58.09;97585.13;7278197;19;131239;-36
2023/12/23 01:21:20;;;;;;;312.52;11.60;;;;;;;20.74;58.34;97616.47;7275085;19;131181;-38
2023/12/23 01:23:46;;;;;;;326.00;11.98;;;;;;;20.72;58.22;97621.06;7276227;19;129686;-38
2023/12/23 01:26:11;;;;;;;452.33;16.83;;;;;;;20.74;58.08;97611.25;7273118;19;131359;-42
2023/12/23 01:28:37;;;;;;;266.80;10.00;;;;;;;20.69;57.87;97637.09;7276614;19;131217;-43
2023/12/23 01:31:02;;;;;;;369.50;13.73;;;;;;;20.71;57.88;97648.16;7274500;19;131621;-40
2023/12/23 01:33:27;;;;;;;268.67;9.70;;;;;;;20.72;57.91;97634.91;7275393;19;129586;-41
2023/12/23 01:35:53;;;;;;;336.85;12.30;;;;;;;20.75;58.40;97654.63;7277057;19;130124;-40
2023/12/23 01:38:18;;;;;;;365.85;14.38;;;;;;;20.68;57.86;97657.16;7273975;19;132827;-37
2023/12/23 01:40:43;;;;;;;228.20;8.13;;;;;;;20.71;58.14;97669.03;7276505;19;131611;-37
2023/12/23 01:43:09;;;;;;;374.92;13.95;;;;;;;20.70;58.66;97676.06;7275528;19;131140;-35
2023/12/23 01:45:34;;;;;;;355.52;12.73;;;;;;;20.69;58.63;97666.59;7275952;19;129930;-37
2023/12/23 01:48:02;;;;;;;367.58;13.60;;;;;;;20.70;58.35;97677.88;7275430;19;131013;-35
2023/12/23 01:50:28;;;;;;;337.38;12.60;;;;;;;20.67;58.53;97693.91;7272864;19;131053;-37
2023/12/23 01:52:55;;;;;;;365.90;13.32;;;;;;;20.67;58.17;97696.50;7274069;19;129966;-36
2023/12/23 01:55:21;;;;;;;363.30;13.25;;;;;;;20.68;57.83;97695.50;7275301;19;131049;-35
2023/12/23 01:57:47;;;;;;;272.43;9.83;;;;;;;20.67;57.90;97704.34;7276544;19;131704;-37
2023/12/23 02:00:12;;;;;;;268.17;9.70;;;;;;;20.66;58.43;97706.13;7273673;19;130266;-37
2023/12/23 02:02:38;;;;;;;332.03;11.93;;;;;;;20.57;58.63;97688.13;7273363;19;130073;-37
2023/12/23 02:05:06;;;;;;;396.87;14.30;;;;;;;20.66;58.25;97705.31;7272280;19;130752;-37
2023/12/23 02:07:34;;;;;;;369.60;13.90;;;;;;;20.65;58.22;97721.97;7274477;19;130586;-37
2023/12/23 02:09:59;;;;;;;350.10;12.75;;;;;;;20.63;58.72;97723.94;7271961;19;130576;-36
2023/12/23 02:13:04;;;;;;;362.08;13.38;;;;;;;20.62;58.64;97730.19;7279559;19;130878;-37
2023/12/23 02:15:30;;;;;;;329.55;11.90;;;;;;;20.67;58.24;97736.50;7279331;19;131374;-38
2023/12/23 02:18:00;;;;;;;353.20;12.52;;;;;;;20.62;58.82;97743.22;7282620;19;131252;-38
2023/12/23 02:20:26;;;;;;;327.25;11.88;;;;;;;20.65;58.27;97740.25;7282420;19;130945;-40
2023/12/23 02:22:52;;;;;;;270.57;9.80;;;;;;;20.63;58.29;97757.91;7278586;19;131443;-38
2023/12/23 02:25:18;;;;;;;278.63;10.00;;;;;;;20.63;58.54;97755.28;7281534;19;131219;-37
2023/12/23 02:27:55;;;;;;;325.63;11.77;;;;;;;20.59;58.76;97770.50;7280989;19;130323;-38
2023/12/23 02:30:23;;;;;;;339.33;12.13;;;;;;;20.59;58.48;97765.28;7278795;19;129966;-37
2023/12/23 02:32:49;;;;;;;289.92;10.45;;;;;;;20.48;58.75;97751.84;7280487;19;129932;-37
2023/12/23 02:35:14;;;;;;;265.13;9.73;;;;;;;20.58;59.03;97773.28;7280948;19;132978;-36
2023/12/23 02:37:41;;;;;;;350.33;12.75;;;;;;;20.59;58.64;97762.66;7281290;19;133416;-38
2023/12/23 02:40:07;;;;;;;436.02;15.98;;;;;;;20.43;58.58;97754.16;7280731;19;130995;-36
2023/12/23 02:42:33;;;;;;;313.40;11.13;;;;;;;20.57;58.48;97784.72;7280424;19;130600;-37
2023/12/23 02:44:58;;;;;;;368.98;13.07;;;;;;;20.55;58.51;97794.53;7273541;19;132000;-38
2023/12/23 02:47:23;;;;;;;311.95;11.20;;;;;;;20.56;58.92;97796.16;7281750;19;130610;-38
2023/12/23 02:49:49;;;;;;;314.58;11.35;;;;;;;20.57;58.98;97803.00;7279319;19;130481;-35
2023/12/23 02:52:14;;;;;;;323.05;11.70;;;;;;;20.57;59.09;97813.44;7279508;19;132422;-37
2023/12/23 02:54:40;;;;;;;332.65;12.57;;;;;;;20.56;58.83;97819.66;7280710;19;131614;-36
2023/12/23 02:57:05;;;;;;;380.77;13.98;;;;;;;20.54;58.78;97814.59;7278394;19;131468;-38
2023/12/23 02:59:30;;;;;;;290.92;10.43;;;;;;;20.43;58.28;97806.38;7281727;19;129808;-37
2023/12/23 03:01:56;;;;;;;316.50;11.27;;;;;;;20.55;58.24;97841.50;7278898;19;131141;-35
2023/12/23 03:04:21;;;;;;;331.07;11.80;;;;;;;20.56;58.31;97832.72;7281385;19;131287;-39
2023/12/23 03:06:46;;;;;;;374.58;13.75;;;;;;;20.52;58.86;97826.22;7280560;19;131487;-37
2023/12/23 03:09:12;;;;;;;356.63;13.25;;;;;;;20.51;58.49;97846.28;7279893;19;131212;-39
2023/12/23 03:11:38;;;;;;;279.98;9.90;;;;;;;20.52;59.11;97853.13;7280897;19;129630;-36
2023/12/23 03:14:04;;;;;;;285.83;10.50;;;;;;;20.36;58.65;97831.56;7281415;19;131063;-36
2023/12/23 03:16:33;;;;;;;341.63;12.48;;;;;;;20.51;59.10;97837.66;7280530;19;130940;-37
2023/12/23 03:19:00;;;;;;;342.95;12.55;;;;;;;20.49;58.96;97870.94;7280547;19;130571;-38
2023/12/23 03:21:26;;;;;;;273.92;10.02;;;;;;;20.47;58.79;97880.75;7280650;19;130019;-36
2023/12/23 03:23:51;;;;;;;420.23;15.95;;;;;;;20.43;58.54;97874.22;7279770;19;131094;-37
2023/12/23 03:26:16;;;;;;;360.33;12.73;;;;;;;20.47;59.25;97878.94;7280415;19;130594;-37
2023/12/23 03:28:42;;;;;;;316.73;11.32;;;;;;;20.48;58.82;97904.06;7281572;19;129713;-38
2023/12/23 03:31:07;;;;;;;294.40;10.82;;;;;;;20.47;59.09;97906.84;7277933;19;130721;-37
2023/12/23 03:33:32;;;;;;;345.67;13.45;;;;;;;20.47;58.93;97912.06;7280492;19;130330;-37
2023/12/23 03:35:58;;;;;;;461.65;17.70;;;;;;;20.45;58.69;97930.50;7278536;19;130466;-38
2023/12/23 03:38:24;;;;;;;328.80;12.00;;;;;;;20.42;59.04;97925.63;7280534;19;130659;-37
2023/12/23 03:40:49;;;;;;;294.67;10.60;;;;;;;20.35;59.11;97918.66;7277342;19;130881;-37
2023/12/23 03:43:15;;;;;;;366.10;13.17;;;;;;;20.44;58.80;97939.31;7278979;19;131025;-37
2023/12/23 03:45:40;;;;;;;356.73;12.70;;;;;;;20.41;58.64;97941.47;7280259;19;131720;-37
2023/12/23 03:48:06;;;;;;;329.47;11.97;;;;;;;20.41;58.75;97954.53;7281589;19;131075;-36
2023/12/23 03:50:31;;;;;;;251.70;8.88;;;;;;;20.41;58.81;97949.31;7278458;19;129937;-37
2023/12/23 03:52:57;;;;;;;301.85;10.55;;;;;;;20.43;59.04;97963.78;7276435;19;130482;-37
2023/12/23 03:55:29;;;;;;;334.17;11.77;;;;;;;20.41;58.73;97964.97;7277726;19;131788;-42
2023/12/23 03:57:54;;;;;;;305.52;10.75;;;;;;;20.41;59.30;97959.75;7281871;19;129494;-41
2023/12/23 04:00:20;;;;;;;323.60;11.33;;;;;;;20.42;59.05;97977.03;7279483;19;130295;-41
2023/12/23 04:02:45;;;;;;;332.50;11.70;;;;;;;20.39;59.45;97970.38;7278230;19;131361;-34
2023/12/23 04:05:10;;;;;;;403.27;14.88;;;;;;;20.39;58.61;97983.41;7278759;19;130211;-37
2023/12/23 04:07:36;;;;;;;311.98;11.27;;;;;;;20.40;59.01;97986.81;7280570;19;129168;-38
2023/12/23 04:10:01;;;;;;;325.23;11.57;;;;;;;20.26;59.55;97971.88;7276714;19;129907;-35
2023/12/23 04:12:27;;;;;;;325.73;11.45;;;;;;;20.40;58.89;97981.59;7278377;19;129639;-37
2023/12/23 04:14:52;;;;;;;299.80;10.68;;;;;;;20.25;59.74;97978.91;7278800;19;130228;-34
2023/12/23 04:17:17;;;;;;;448.90;17.08;;;;;;;20.37;59.07;97990.59;7274684;19;132338;-39
2023/12/23 04:19:43;;;;;;;290.73;10.10;;;;;;;20.35;58.76;97994.34;7279650;19;129660;-39
2023/12/23 04:22:08;;;;;;;415.65;15.55;;;;;;;20.34;59.03;97996.16;7277643;19;130579;-36
2023/12/23 04:24:33;;;;;;;326.00;11.55;;;;;;;20.36;58.97;97990.75;7278169;19;130718;-35
2023/12/23 04:26:59;;;;;;;309.88;11.18;;;;;;;20.33;59.54;97993.69;7279131;19;130140;-36
2023/12/23 04:29:24;;;;;;;244.35;8.75;;;;;;;20.31;59.60;98000.91;7276244;19;130560;-37
2023/12/23 04:31:50;;;;;;;352.45;12.73;;;;;;;20.29;58.98;98005.47;7278538;19;131814;-36
2023/12/23 04:34:15;;;;;;;296.70;10.68;;;;;;;20.29;59.05;98011.50;7279995;19;131700;-37
2023/12/23 04:36:40;;;;;;;273.20;9.60;;;;;;;20.32;59.75;98016.38;7277232;19;129586;-36
2023/12/23 04:39:06;;;;;;;387.80;14.27;;;;;;;20.40;59.54;98015.53;7278873;19;129811;-37
2023/12/23 04:41:34;;;;;;;458.33;16.80;;;;;;;20.68;58.93;98008.84;7275419;19;130498;-35
2023/12/23 04:44:01;;;;;;;354.52;13.32;;;;;;;21.08;56.90;97995.56;7277737;19;131718;-36
2023/12/23 04:46:26;;;;;;;;;;;;;;;21.81;55.58;98025.34;7277070;19;131511;-36
2023/12/23 04:48:51;;;;;;;299.70;10.60;;;;;;;22.50;53.71;98023.22;7276409;19;130818;-35
2023/12/23 04:51:17;;;;;;;370.63;13.45;;;;;;;23.03;52.15;98020.22;7275389;19;130991;-35
2023/12/23 04:53:43;;;;;;;314.52;11.23;;;;;;;23.72;50.46;98024.66;7276952;19;131080;-38
2023/12/23 04:56:08;;;;;;;334.88;11.93;;;;;;;24.35;48.93;98032.38;7275052;19;131205;-38
2023/12/23 04:58:34;;;;;;;327.52;11.70;;;;;;;24.87;47.62;98023.06;7278051;19;130086;-35
2023/12/23 05:00:59;;;;;;;301.90;10.53;;;;;;;25.28;46.00;98015.88;7276903;19;130438;-36
2023/12/23 05:03:25;;;;;;;332.60;12.48;;;;;;;25.54;45.19;98024.59;7276277;19;130762;-34
2023/12/23 05:05:50;;;;;;;319.20;11.55;;;;;;;25.67;45.28;97997.47;7278525;19;131012;-37
2023/12/23 05:08:16;;;;;;;350.08;12.75;;;;;;;25.97;44.20;98019.69;7276778;19;129874;-34
2023/12/23 05:10:45;;;;;;;305.43;11.03;;;;;;;26.18;43.51;98014.19;7275474;19;131596;-37
2023/12/23 05:13:10;;;;;;;270.60;9.50;;;;;;;26.24;43.74;98018.66;7277158;19;131693;-37
2023/12/23 05:15:36;;;;;;;324.73;12.00;;;;;;;26.36;43.50;98014.34;7274136;19;131091;-34
2023/12/23 05:18:02;;;;;;;341.43;12.10;;;;;;;26.52;43.46;98005.97;7277924;19;129744;-37
2023/12/23 05:20:27;;;;;;;477.75;18.75;;;;;;;26.61;43.14;98009.97;7273478;19;132838;-33
2023/12/23 05:22:53;;;;;;;300.97;10.80;;;;;;;26.70;42.86;98010.59;7274085;19;130332;-37
2023/12/23 05:25:18;;;;;;;397.27;14.60;;;;;;;26.65;43.15;98008.59;7273252;19;132045;-36
2023/12/23 05:27:44;;;;;;;370.57;13.57;;;;;;;26.61;42.91;98014.47;7275665;19;129523;-37
2023/12/23 05:30:10;;;;;;;287.80;10.53;;;;;;;26.72;42.78;98016.47;7275102;19;130322;-34
2023/12/23 05:32:35;;;;;;;323.50;12.13;;;;;;;26.76;43.02;97999.19;7274569;19;131068;-37
2023/12/23 05:35:00;;;;;;;311.37;10.87;;;;;;;26.74;42.37;98009.94;7274747;19;130580;-36
2023/12/23 05:37:26;;;;;;;411.13;14.93;;;;;;;26.79;42.97;98010.13;7276987;19;130927;-39
2023/12/23 05:39:51;;;;;;;297.67;10.87;;;;;;;26.54;42.70;98011.03;7275570;19;131068;-35
2023/12/23 05:42:17;;;;;;;310.20;11.33;;;;;;;26.42;43.57;97996.91;7273637;19;130371;-35
2023/12/23 05:44:42;;;;;;;426.53;15.53;;;;;;;26.23;43.91;97998.56;7271495;19;129910;-35
2023/12/23 05:47:07;;;;;;;328.17;11.50;;;;;;;26.04;44.33;98010.00;7279619;19;130357;-36
2023/12/23 05:49:33;;;;;;;284.20;10.40;;;;;;;25.80;44.80;98007.97;7278997;19;132293;-35
2023/12/23 05:51:58;;;;;;;301.63;11.10;;;;;;;25.62;45.40;97999.88;7280907;19;131797;-37
2023/12/23 05:54:23;;;;;;;360.33;13.30;;;;;;;25.44;45.75;98004.97;7284305;19;131057;-35
2023/12/23 05:56:49;;;;;;;377.80;13.90;;;;;;;25.22;46.27;98006.16;7283106;19;131724;-34
2023/12/23 05:59:14;;;;;;;344.37;13.50;;;;;;;25.08;46.87;98007.13;7283599;19;131286;-35
2023/12/23 06:01:39;;;;;;;318.10;11.90;;;;;;;24.93;46.61;98003.88;7281578;19;129502;-36
2023/12/23 06:04:05;;;;;;;341.17;12.00;;;;;;;24.73;47.55;98000.38;7283390;19;129464;-32
2023/12/23 06:06:30;;;;;;;345.73;12.55;;;;;;;24.59;48.04;98001.34;7284177;19;129958;-35
2023/12/23 06:08:55;;;;;;;312.80;11.77;;;;;;;24.49;47.91;97999.88;7280869;19;130937;-36
2023/12/23 06:11:21;;;;;;;310.37;11.57;;;;;;;24.35;48.25;98000.84;7279922;19;132390;-36
2023/12/23 06:13:46;;;;;;;350.37;12.73;;;;;;;24.21;49.28;97998.34;7282582;19;131012;-37
2023/12/23 06:16:11;;;;;;;292.73;10.43;;;;;;;24.02;49.01;98009.56;7283212;19;132193;-37
2023/12/23 06:18:37;;;;;;;302.70;10.93;;;;;;;23.94;49.28;98007.88;7279975;19;131352;-37
2023/12/23 06:21:02;;;;;;;310.38;11.15;;;;;;;23.86;49.36;97997.53;7277815;19;130290;-33
2023/12/23 06:23:27;;;;;;;385.90;14.17;;;;;;;23.70;50.44;98003.06;7283315;19;131425;-35
2023/12/23 06:25:53;;;;;;;336.47;12.43;;;;;;;23.59;50.90;97998.34;7283010;19;130200;-39
2023/12/23 06:28:18;;;;;;;297.00;10.93;;;;;;;23.41;50.67;97973.56;7280258;19;130491;-37
2023/12/23 06:30:44;;;;;;;374.37;13.57;;;;;;;23.44;51.10;98000.25;7275068;19;130004;-37
2023/12/23 06:33:09;;;;;;;361.73;13.15;;;;;;;23.36;50.93;97991.69;7280648;19;130036;-38
2023/12/23 06:35:34;;;;;;;330.97;11.70;;;;;;;23.32;51.63;97986.00;7282609;19;130865;-38
2023/12/23 06:38:00;;;;;;;319.77;11.80;;;;;;;23.19;51.53;97996.38;7279280;19;130436;-34
2023/12/23 06:40:28;;;;;;;357.13;13.00;;;;;;;23.11;51.60;97980.78;7281885;19;131565;-36
2023/12/23 06:42:54;;;;;;;318.10;11.32;;;;;;;23.13;51.62;97976.16;7278853;19;129941;-34
2023/12/23 06:45:19;;;;;;;340.90;12.27;;;;;;;23.09;51.51;97980.13;7279082;19;129851;-34
2023/12/23 06:47:44;;;;;;;283.90;10.37;;;;;;;22.99;51.78;97964.72;7282508;19;130684;-37
2023/12/23 06:50:09;;;;;;;346.77;12.60;;;;;;;23.02;52.18;97977.47;7279277;19;131564;-38
2023/12/23 06:52:35;;;;;;;369.73;13.52;;;;;;;22.96;52.75;97980.03;7279380;19;131170;-35
2023/12/23 06:55:00;;;;;;;367.63;13.23;;;;;;;22.96;51.98;97965.13;7276478;19;131801;-35
2023/12/23 06:57:26;;;;;;;358.70;12.97;;;;;;;23.00;52.36;97982.09;7268868;19;131639;-36
2023/12/23 06:59:52;;;;;;;386.20;13.82;;;;;;;23.11;52.32;97978.97;7279044;19;130056;-34
2023/12/23 07:02:17;;;;;;;335.10;12.30;;;;;;;23.19;52.13;97981.44;7280319;19;130142;-34
2023/12/23 07:04:42;;;;;;;331.60;12.02;;;;;;;23.23;51.43;97972.22;7279756;19;132553;-35
2023/12/23 07:07:08;;;;;;;313.40;11.77;;;;;;;23.31;51.87;97967.84;7281383;19;131322;-38
2023/12/23 07:09:33;;;;;;;318.05;11.40;;;;;;;23.41;51.19;97963.91;7276431;19;131377;-35
2023/12/23 07:11:58;;;;;;;321.17;11.52;;;;;;;23.48;50.64;97964.78;7280292;19;131846;-40
2023/12/23 07:14:24;;;;;;;335.58;12.38;;;;;;;23.58;50.36;97965.25;7279842;19;130435;-36
2023/12/23 07:16:49;;;;;;;341.93;12.27;;;;;;;23.64;50.56;97961.84;7280159;19;130895;-37
2023/12/23 07:19:15;;;;;;;462.20;17.48;;;;;;;23.68;50.24;97943.91;7280595;19;131995;-36
2023/12/23 07:21:40;;;;;;;308.70;10.90;;;;;;;23.86;50.35;97966.03;7282293;19;130306;-38
2023/12/23 07:24:05;;;;;;;269.02;9.77;;;;;;;23.84;49.45;97944.41;7281970;19;129973;-35
2023/12/23 07:26:34;;;;;;;314.07;11.07;;;;;;;24.02;49.38;97946.53;7274121;19;130476;-37
2023/12/23 07:29:00;;;;;;;329.30;11.73;;;;;;;24.08;49.88;97962.31;7279324;19;131562;-34
2023/12/23 07:31:26;;;;;;;370.43;13.63;;;;;;;24.00;49.74;97940.66;7279952;19;130873;-36
2023/12/23 07:33:51;;;;;;;333.20;11.67;;;;;;;24.16;48.90;97956.91;7279532;19;129889;-35
2023/12/23 07:36:16;;;;;;;312.17;11.20;;;;;;;24.17;49.19;97950.66;7279504;19;130074;-36
2023/12/23 07:38:42;;;;;;;363.23;12.80;;;;;;;24.29;49.12;97949.09;7279822;19;131256;-36
2023/12/23 07:41:08;;;;;;;298.38;10.63;;;;;;;24.18;49.39;97947.03;7279901;19;130239;-39
2023/12/23 07:43:34;;;;;;;348.05;13.15;;;;;;;24.32;48.51;97943.44;7278541;19;130093;-38
2023/12/23 07:45:59;;;;;;;329.97;11.67;;;;;;;24.35;48.56;97939.59;7278235;19;131030;-38
2023/12/23 07:48:24;;;;;;;370.67;14.07;;;;;;;24.30;48.58;97913.13;7279083;19;129991;-34
2023/12/23 07:50:50;;;;;;;322.07;11.70;;;;;;;24.41;48.19;97931.75;7276552;19;131415;-36
2023/12/23 07:53:15;;;;;;;397.83;14.83;;;;;;;24.45;48.37;97932.16;7271861;19;130675;-37
2023/12/23 07:55:40;;;;;;;390.47;14.03;;;;;;;24.35;48.93;97919.41;7273605;19;132500;-33
2023/12/23 07:58:06;;;;;;;353.27;12.53;;;;;;;24.37;48.57;97912.16;7276598;19;130505;-37
2023/12/23 08:00:31;;;;;;;402.47;15.03;;;;;;;24.28;48.73;97897.56;7268514;19;131178;-34
2023/12/23 08:02:57;;;;;;;313.70;11.20;;;;;;;24.42;49.14;97922.88;7270765;19;130287;-37
2023/12/23 08:05:22;;;;;;;484.30;18.03;;;;;;;24.41;48.12;97902.84;7268136;19;131637;-35
2023/12/23 08:07:47;;;;;;;345.83;13.00;;;;;;;24.51;48.09;97912.19;7272469;19;130431;-36
2023/12/23 08:10:13;;;;;;;367.73;13.23;;;;;;;24.53;48.15;97907.53;7270864;19;129510;-33
2023/12/23 08:12:38;;;;;;;429.50;16.27;;;;;;;24.51;48.55;97894.56;7268446;19;129632;-37
2023/12/23 08:15:04;;;;;;;377.13;13.60;;;;;;;24.38;48.58;97876.16;7273429;19;130757;-33
2023/12/23 08:17:29;;;;;;;426.43;16.10;;;;;;;24.49;48.87;97896.63;7269231;19;130821;-35
2023/12/23 08:19:55;;;;;;;390.00;13.97;;;;;;;24.45;48.84;97904.09;7271313;19;130835;-35
2023/12/23 08:22:20;;;;;;;399.93;14.40;;;;;;;24.63;48.46;97902.69;7270572;19;130372;-36
2023/12/23 08:24:45;;;;;;;448.10;16.58;;;;;;;24.58;48.31;97879.63;7268259;19;130470;-32
2023/12/23 08:27:11;;;;;;;321.45;11.45;;;;;;;24.68;47.87;97885.34;7276026;19;131985;-32
2023/12/23 08:29:38;;;;;;;371.10;13.55;;;;;;;24.72;47.99;97885.75;7268610;19;130661;-39
2023/12/23 08:32:04;;;;;;;396.25;14.05;;;;;;;24.71;48.37;97877.06;7272251;19;131534;-38
2023/12/23 08:34:30;;;;;;;419.87;15.07;;;;;;;24.77;48.26;97871.00;7271649;19;131440;-39
2023/12/23 08:36:56;;;;;;;306.63;11.03;;;;;;;24.78;47.89;97870.00;7267988;19;132404;-39
2023/12/23 08:39:21;;;;;;;366.60;12.85;;;;;;;24.78;47.94;97863.91;7270834;19;129438;-43
2023/12/23 08:41:47;;;;;;;421.65;15.82;;;;;;;24.85;47.70;97867.38;7272616;19;132550;-39
2023/12/23 08:44:13;;;;;;;355.17;12.73;;;;;;;24.80;47.78;97864.53;7271811;19;130740;-43
2023/12/23 08:46:38;;;;;;;335.00;12.27;;;;;;;24.65;47.83;97838.41;7271826;19;130386;-39
2023/12/23 08:49:03;;;;;;;357.52;13.10;;;;;;;24.58;47.88;97834.97;7267772;19;131979;-41
2023/12/23 08:51:31;;;;;;;398.88;14.65;;;;;;;24.76;47.60;97863.34;7271926;19;131373;-39
2023/12/23 08:53:57;;;;;;;395.38;14.93;;;;;;;24.55;48.50;97829.31;7270667;19;129915;-38
2023/12/23 08:56:22;;;;;;;400.90;15.00;;;;;;;24.70;48.03;97835.22;7269234;19;130753;-41
2023/12/23 08:58:47;;;;;;;284.00;10.20;;;;;;;24.70;47.94;97850.97;7266438;19;131423;-43
2023/12/23 09:01:13;;;;;;;374.77;13.43;;;;;;;24.68;47.78;97848.56;7271083;19;131530;-43
2023/12/23 09:03:38;;;;;;;333.57;12.23;;;;;;;24.66;48.67;97849.75;7273701;19;130012;-40
2023/12/23 09:06:06;;;;;;;403.63;15.00;;;;;;;24.62;48.52;97846.72;7272889;19;131910;-40
2023/12/23 09:08:33;;;;;;;390.33;14.77;;;;;;;24.49;48.42;97834.34;7271006;19;131982;-39
2023/12/23 09:11:02;;;;;;;399.58;14.80;;;;;;;24.68;48.67;97842.47;7270429;19;130635;-39
2023/12/23 09:13:27;;;;;;;390.10;13.98;;;;;;;24.64;48.66;97849.13;7272158;19;130750;-40
2023/12/23 09:15:52;;;;;;;358.13;12.90;;;;;;;24.58;48.63;97834.19;7269021;19;132767;-41
2023/12/23 09:18:18;;;;;;;379.43;14.20;;;;;;;24.60;48.22;97832.13;7270287;19;130577;-39
2023/12/23 09:20:43;;;;;;;364.50;13.27;;;;;;;24.52;48.37;97833.16;7265650;19;129704;-42
2023/12/23 09:23:08;;;;;;;363.53;13.67;;;;;;;24.50;48.48;97829.91;7275155;19;131123;-38
2023/12/23 09:25:34;;;;;;;359.60;13.13;;;;;;;24.57;48.52;97827.28;7266083;19;131484;-41
2023/12/23 09:27:59;;;;;;;472.13;18.70;;;;;;;24.54;48.95;97814.56;7265587;19;130368;-38
2023/12/23 09:30:24;;;;;;;368.97;13.30;;;;;;;24.63;48.76;97818.59;7269611;19;129793;-43
2023/12/23 09:32:50;;;;;;;372.27;14.23;;;;;;;24.53;46.47;97812.97;7268873;19;130435;-40
2023/12/23 09:35:15;;;;;;;356.20;13.30;;;;;;;24.48;45.77;97806.47;7268220;19;131958;-40
2023/12/23 09:37:41;;;;;;;514.75;20.80;;;;;;;24.46;46.34;97819.00;7262615;19;132510;-31
2023/12/23 09:40:07;;;;;;;412.83;16.23;;;;;;;24.48;45.54;97800.41;7270303;19;130487;-35
2023/12/23 09:42:32;;;;;;;354.13;15.73;;;;;;;24.52;46.03;97811.31;7268300;19;131625;-36
2023/12/23 09:44:57;;;;;;;327.43;13.17;;;;;;;24.66;46.93;97812.97;7271888;19;131586;-38
2023/12/23 09:47:24;;;;;;;446.48;17.45;;;;;;;24.69;46.36;97808.13;7267092;19;130848;-35
2023/12/23 09:49:50;;;;;;;383.13;14.85;;;;;;;24.76;46.93;97797.63;7268995;19;130403;-37
2023/12/23 09:52:15;;;;;;;276.27;11.47;;;;;;;24.78;46.52;97795.56;7270804;19;132177;-36
2023/12/23 09:54:47;;;;;;;400.90;15.90;;;;;;;24.85;46.43;97791.13;7269864;19;130349;-36
2023/12/23 09:57:13;;;;;;;376.83;14.30;;;;;;;24.80;46.45;97777.78;7271250;19;131697;-37
2023/12/23 09:59:39;;;;;;;501.57;20.80;;;;;;;24.78;47.01;97782.44;7266786;19;130975;-36
2023/12/23 10:02:05;;;;;;;328.20;12.60;;;;;;;24.74;47.06;97776.81;7267461;19;132108;-38
2023/12/23 10:04:31;;;;;;;331.80;12.70;;;;;;;24.67;47.14;97783.03;7270866;19;131264;-37
2023/12/23 10:06:56;;;;;;;343.87;12.90;;;;;;;24.61;47.51;97766.25;7265480;19;130128;-38
2023/12/23 10:09:23;;;;;;;333.30;12.73;;;;;;;24.55;48.20;97768.88;7272993;19;131932;-37
2023/12/23 10:11:48;;;;;;;342.48;13.10;;;;;;;24.41;48.18;97762.84;7265499;19;130542;-37
2023/12/23 10:14:14;;;;;;;343.17;13.50;;;;;;;24.38;48.26;97758.78;7268520;19;130524;-38
2023/12/23 10:16:42;;;;;;;425.53;16.73;;;;;;;24.28;48.64;97758.38;7273995;19;132728;-35
2023/12/23 10:19:08;;;;;;;460.70;18.67;;;;;;;24.13;47.07;97754.34;7264509;19;130463;-37
2023/12/23 10:21:35;;;;;;;378.25;14.85;;;;;;;24.13;48.36;97749.09;7271768;19;130776;-37
2023/12/23 10:24:00;;;;;;;311.45;11.82;;;;;;;24.12;45.52;97744.81;7271338;19;131510;-35
2023/12/23 10:26:26;;;;;;;385.17;15.10;;;;;;;24.04;46.20;97745.84;7276289;19;130487;-37
2023/12/23 10:28:55;;;;;;;313.90;12.40;;;;;;;24.08;45.58;97751.50;7273533;19;130088;-38
2023/12/23 10:31:23;;;;;;;326.90;12.60;;;;;;;24.14;46.43;97748.88;7272890;19;132591;-37
2023/12/23 10:33:54;;;;;;;320.98;13.07;;;;;;;24.14;46.78;97741.00;7279998;19;131135;-36
2023/12/23 10:36:19;;;;;;;348.83;13.20;;;;;;;24.22;47.17;97726.84;7284184;19;131063;-37
2023/12/23 10:38:51;;;;;;;316.80;12.43;;;;;;;24.25;47.48;97729.06;7283596;19;129516;-37
2023/12/23 10:41:41;;;;;;;281.80;10.73;;;;;;;24.22;47.75;97727.66;7282458;19;131982;-37
2023/12/23 10:44:08;;;;;;;295.45;11.10;;;;;;;24.31;47.68;97721.19;7281374;19;130335;-37
2023/12/23 10:46:34;;;;;;;278.75;10.80;;;;;;;24.41;47.37;97718.97;7283635;19;130869;-37
2023/12/23 10:49:00;;;;;;;293.67;11.27;;;;;;;24.35;47.57;97725.03;7282678;19;131558;-36
2023/12/23 10:51:26;;;;;;;399.63;15.43;;;;;;;24.28;47.98;97708.47;7279990;19;131017;-38
2023/12/23 10:53:55;;;;;;;326.27;12.17;;;;;;;24.32;47.58;97701.81;7276947;19;130707;-37
2023/12/23 10:56:22;;;;;;;272.80;10.73;;;;;;;24.45;47.79;97709.69;7279413;19;130593;-39